Portada
METAR-TAF:

METAR-TAF

Aeropuertos :

Guilin, China

latitud: 25-20N, longitud: 110-18E, altitud: 166 m

Observación

El informe se hizo hace 44 minutos, a las 15:00 UTC
Viento 8 kt del este-noreste
Temperatura 11°C
Humedad 82%
Presión 1016 hPa
Visibilidad: 3500 m
Nubes dispersas a una altura de 3300 ft
Cielo cubierto a una altura de 5000 ft
neblina

METAR: ZGKL 231500Z 06004MPS 3500 BR SCT033 OVC050 11/08 Q1016 NOSIG

Hora: 23:44 (15:44 UTC)

Pronóstico

El informe se hizo hace 6 horas y 29 minutos, a las 09:15 UTC
Pronóstico válido del 23 a las 12 UTC al 24 a las 12 UTC
Viento 6 kt del noreste
Visibilidad: 2200 m
Nubes dispersas a una altura de 3300 ft
Cielo cubierto a una altura de 5000 ft
lluvia ligera, neblina
Temporalmente
del 23 a las 18 UTC al 23 a las 24 UTC
Visibilidad: 1300 m

TAF: ZGKL 230915Z 2312/2412 05003MPS 2200 -RA BR SCT033 OVC050 TX14/2407Z TN11/2322Z TEMPO 2318/2324 1300

Observaciones y pronósticos meteorológicos de más de 4000 aeropuertos (mensajes METAR y TAF).

Los puntos amarillos y rojos representan las estaciones disponibles.

Ponga el ratón en el punto deseado para ver el nombre de la estación.

Haga clic para ver las observaciones y los pronósticos meteorológicos.

Para cambiar el mapa : haga clic en los botones verdes con una cruz de color negro para hacer un zoom, en el botón verde con un guión para alejar o en las flechas verdes para mapas adyacentes.


METAR-TAF: